createdAt,value
2022-10-07T00:01:25.905Z,12.11
2022-10-07T00:03:54.595Z,12.12
2022-10-07T00:06:24.630Z,11.90
2022-10-07T00:08:54.845Z,11.93
2022-10-07T00:11:27.736Z,11.89
2022-10-07T00:14:00.920Z,11.75
2022-10-07T00:16:32.688Z,12.20
2022-10-07T00:19:03.382Z,12.23
2022-10-07T00:21:37.677Z,12.14
2022-10-07T00:24:07.098Z,11.82
2022-10-07T00:26:37.735Z,12.12
2022-10-07T00:29:08.192Z,11.84
2022-10-07T00:31:38.152Z,12.01
2022-10-07T00:34:06.767Z,11.95
2022-10-07T00:36:39.114Z,11.99
2022-10-07T00:39:10.042Z,11.66
2022-10-07T00:41:42.437Z,11.83
2022-10-07T00:44:39.776Z,11.88
2022-10-07T00:47:24.006Z,11.92
2022-10-07T00:50:00.110Z,12.03
2022-10-07T00:52:32.928Z,12.05
2022-10-07T00:55:04.288Z,11.77
2022-10-07T00:57:34.127Z,11.43
2022-10-07T01:00:06.640Z,11.98
2022-10-07T01:02:35.942Z,11.97
2022-10-07T01:05:09.213Z,11.89
2022-10-07T01:07:39.136Z,11.93
2022-10-07T01:10:11.681Z,11.90
2022-10-07T01:12:58.010Z,12.01
2022-10-07T01:15:39.386Z,11.94
2022-10-07T01:18:17.938Z,11.90
2022-10-07T01:20:54.877Z,11.82
2022-10-07T01:23:47.175Z,11.56
2022-10-07T01:27:02.161Z,11.75
2022-10-07T01:29:36.965Z,11.54
2022-10-07T01:32:12.916Z,11.60
2022-10-07T01:34:44.981Z,11.43
2022-10-07T01:37:17.524Z,11.70
2022-10-07T01:39:51.261Z,11.57
2022-10-07T01:42:21.910Z,11.61
2022-10-07T01:44:56.207Z,11.50
2022-10-07T01:47:26.057Z,11.13
2022-10-07T01:49:54.492Z,11.61
2022-10-07T01:52:55.893Z,11.61
2022-10-07T01:55:51.673Z,11.39
2022-10-07T01:58:38.097Z,11.46
2022-10-07T02:01:18.564Z,11.23
2022-10-07T02:04:13.905Z,11.35
2022-10-07T02:06:53.054Z,11.29
2022-10-07T02:09:31.475Z,11.34
2022-10-07T02:12:10.346Z,11.08
2022-10-07T02:14:46.450Z,11.35
2022-10-07T02:17:19.440Z,11.34
2022-10-07T02:19:54.550Z,11.29
2022-10-07T02:22:27.091Z,11.17
2022-10-07T02:24:59.265Z,10.85
2022-10-07T02:27:35.434Z,11.18
2022-10-07T02:30:11.784Z,11.30
2022-10-07T02:32:46.299Z,11.11
2022-10-07T02:35:20.606Z,11.31
2022-10-07T02:37:54.419Z,10.42
2022-10-07T02:40:29.499Z,11.37
2022-10-07T02:43:04.344Z,11.38
2022-10-07T02:45:43.662Z,11.39
2022-10-07T02:48:20.625Z,11.35
2022-10-07T02:50:55.314Z,11.29
2022-10-07T02:53:27.656Z,11.27
2022-10-07T02:55:59.211Z,11.23
2022-10-07T02:58:28.553Z,11.09
2022-10-07T03:01:02.458Z,11.00
2022-10-07T03:03:31.369Z,10.91
2022-10-07T03:06:04.117Z,11.14
2022-10-07T03:08:33.189Z,10.94
2022-10-07T03:11:02.471Z,11.15
2022-10-07T03:13:32.229Z,11.13
2022-10-07T03:16:05.406Z,10.92
2022-10-07T03:18:34.514Z,10.88
2022-10-07T03:21:19.456Z,10.57
2022-10-07T03:23:53.396Z,11.04
2022-10-07T03:26:24.129Z,11.10
2022-10-07T03:28:54.239Z,10.99
2022-10-07T03:31:24.574Z,11.00
2022-10-07T03:33:57.412Z,10.75
2022-10-07T03:36:26.630Z,11.04
2022-10-07T03:38:55.627Z,10.53
2022-10-07T03:41:24.868Z,10.71
2022-10-07T03:43:57.452Z,10.97
2022-10-07T03:46:28.107Z,10.79
2022-10-07T03:48:56.484Z,10.98
2022-10-07T03:51:24.854Z,10.95
2022-10-07T03:53:54.714Z,10.87
2022-10-07T03:56:23.352Z,10.94
2022-10-07T03:58:52.731Z,10.83
2022-10-07T04:01:21.109Z,10.60
2022-10-07T04:03:56.006Z,10.34
2022-10-07T04:06:25.505Z,10.78
2022-10-07T04:08:56.021Z,10.07
2022-10-07T04:11:25.237Z,10.96
2022-10-07T04:13:56.338Z,10.92
2022-10-07T04:16:27.266Z,10.64
2022-10-07T04:18:58.828Z,10.98
2022-10-07T04:21:28.951Z,10.86
2022-10-07T04:23:57.262Z,10.80
2022-10-07T04:26:25.589Z,10.26
2022-10-07T04:28:53.944Z,10.86
2022-10-07T04:31:24.664Z,10.90
2022-10-07T04:34:06.768Z,11.04
2022-10-07T04:36:39.546Z,11.06
2022-10-07T04:39:14.493Z,10.56
2022-10-07T04:41:49.674Z,10.88
2022-10-07T04:44:22.683Z,10.79
2022-10-07T04:47:03.899Z,10.92
2022-10-07T04:49:34.119Z,11.08
2022-10-07T04:52:05.064Z,10.95
2022-10-07T04:54:39.401Z,11.04
2022-10-07T04:57:10.097Z,10.96
2022-10-07T04:59:42.661Z,11.16
2022-10-07T05:02:13.721Z,10.59
2022-10-07T05:04:44.238Z,9.92
2022-10-07T05:07:13.046Z,11.00
2022-10-07T05:09:42.615Z,11.02
2022-10-07T05:12:11.416Z,10.75
2022-10-07T05:14:41.721Z,10.92
2022-10-07T05:17:11.499Z,11.17
2022-10-07T05:19:39.898Z,11.18
2022-10-07T05:22:10.899Z,10.59
2022-10-07T05:24:39.613Z,10.59
2022-10-07T05:27:08.093Z,10.92
2022-10-07T05:29:37.073Z,10.96
2022-10-07T05:32:05.560Z,11.01
2022-10-07T05:34:35.006Z,10.76
2022-10-07T05:37:03.290Z,11.05
2022-10-07T05:39:32.978Z,10.96
2022-10-07T05:42:08.255Z,11.03
2022-10-07T05:44:43.250Z,10.94
2022-10-07T05:47:13.317Z,10.37
2022-10-07T05:49:43.250Z,11.03
2022-10-07T05:52:11.763Z,10.97
2022-10-07T05:54:42.519Z,11.18
2022-10-07T05:57:11.843Z,11.29
2022-10-07T05:59:40.128Z,11.23
2022-10-07T06:02:08.765Z,11.25
2022-10-07T06:04:37.299Z,11.03
2022-10-07T06:07:06.078Z,11.30
2022-10-07T06:09:52.652Z,11.17
2022-10-07T06:12:40.217Z,10.86
2022-10-07T06:15:12.716Z,11.20
2022-10-07T06:17:45.772Z,11.22
2022-10-07T06:20:17.989Z,11.42
2022-10-07T06:22:47.392Z,11.42
2022-10-07T06:25:17.610Z,11.46
2022-10-07T06:27:53.812Z,11.57
2022-10-07T06:30:23.409Z,11.70
2022-10-07T06:32:51.813Z,11.24
2022-10-07T06:35:20.565Z,11.88
2022-10-07T06:37:50.911Z,11.52
2022-10-07T06:40:19.396Z,11.98
2022-10-07T06:42:49.307Z,11.94
2022-10-07T06:45:43.308Z,12.03
2022-10-07T06:48:14.113Z,12.20
2022-10-07T06:50:51.990Z,12.24
2022-10-07T06:53:21.364Z,12.35
2022-10-07T06:55:51.615Z,12.64
2022-10-07T06:58:26.030Z,12.83
2022-10-07T07:00:56.302Z,12.91
2022-10-07T07:03:25.730Z,12.87
2022-10-07T07:05:56.321Z,12.76
2022-10-07T07:08:32.021Z,13.03
2022-10-07T07:11:06.285Z,13.46
2022-10-07T07:13:36.146Z,13.32
2022-10-07T07:16:09.567Z,13.13
2022-10-07T07:18:38.081Z,13.32
2022-10-07T07:21:07.774Z,13.16
2022-10-07T07:23:36.573Z,13.73
2022-10-07T07:26:04.866Z,13.85
2022-10-07T07:28:36.611Z,13.78
2022-10-07T07:31:09.495Z,13.97
2022-10-07T07:33:38.510Z,13.73
2022-10-07T07:36:16.517Z,13.95
2022-10-07T07:38:53.182Z,13.69
2022-10-07T07:41:24.715Z,13.62
2022-10-07T07:43:57.432Z,13.56
2022-10-07T07:46:33.252Z,13.84
2022-10-07T07:49:01.678Z,13.84
2022-10-07T07:51:30.941Z,13.80
2022-10-07T07:53:59.809Z,14.16
2022-10-07T07:56:31.959Z,14.41
2022-10-07T07:59:03.562Z,14.21
2022-10-07T08:01:33.189Z,14.42
2022-10-07T08:04:03.097Z,14.50
2022-10-07T08:06:34.533Z,14.50
2022-10-07T08:09:05.591Z,14.69
2022-10-07T08:11:35.479Z,14.74
2022-10-07T08:14:08.211Z,14.86
2022-10-07T08:16:38.054Z,14.49
2022-10-07T08:19:07.327Z,15.02
2022-10-07T08:21:35.794Z,15.09
2022-10-07T08:24:08.280Z,15.20
2022-10-07T08:26:39.490Z,15.46
2022-10-07T08:29:13.280Z,15.72
2022-10-07T08:31:43.473Z,15.56
2022-10-07T08:34:12.972Z,15.88
2022-10-07T08:36:47.154Z,16.32
2022-10-07T08:39:16.537Z,16.03
2022-10-07T08:41:59.772Z,16.26
2022-10-07T08:44:33.888Z,16.48
2022-10-07T08:47:14.898Z,16.58
2022-10-07T08:49:56.695Z,16.61
2022-10-07T08:52:36.634Z,16.85
2022-10-07T08:55:16.266Z,16.64
2022-10-07T08:58:04.378Z,16.51
2022-10-07T09:00:42.775Z,17.00
2022-10-07T09:03:25.319Z,16.95
2022-10-07T09:05:57.130Z,17.13
2022-10-07T09:08:35.317Z,17.34
2022-10-07T09:11:16.589Z,17.40
2022-10-07T09:13:49.776Z,17.07
2022-10-07T09:16:25.652Z,17.60
2022-10-07T09:18:56.978Z,17.99
2022-10-07T09:21:33.999Z,18.33
2022-10-07T09:24:19.230Z,18.44
2022-10-07T09:26:48.039Z,18.30
2022-10-07T09:29:20.379Z,18.20
2022-10-07T09:31:50.432Z,18.06
2022-10-07T09:34:23.483Z,18.32
2022-10-07T09:37:22.080Z,18.22
2022-10-07T09:39:53.287Z,18.33
2022-10-07T09:42:35.732Z,18.46
2022-10-07T09:45:27.215Z,18.58
2022-10-07T09:47:59.883Z,18.72
2022-10-07T09:50:37.087Z,18.47
2022-10-07T09:53:17.686Z,18.58
2022-10-07T09:55:46.549Z,18.60
2022-10-07T09:58:22.286Z,18.71
2022-10-07T10:00:53.396Z,18.95
2022-10-07T10:03:29.694Z,19.18
2022-10-07T10:06:01.405Z,18.99
2022-10-07T10:08:33.933Z,18.99
2022-10-07T10:11:05.050Z,18.89
2022-10-07T10:13:37.151Z,18.70
2022-10-07T10:16:28.588Z,18.75
2022-10-07T10:19:02.256Z,18.82
2022-10-07T10:21:35.763Z,19.02
2022-10-07T10:24:07.656Z,18.95
2022-10-07T10:26:56.631Z,19.26
2022-10-07T10:29:46.626Z,19.09
2022-10-07T10:33:10.290Z,19.87
2022-10-07T10:35:47.706Z,19.63
2022-10-07T10:38:34.188Z,19.96
2022-10-07T10:41:17.730Z,19.88
2022-10-07T10:44:05.844Z,19.82
2022-10-07T10:46:51.907Z,19.75
2022-10-07T10:49:30.434Z,19.83
2022-10-07T10:52:25.915Z,19.88
2022-10-07T10:55:23.856Z,19.76
2022-10-07T10:58:03.572Z,20.01
2022-10-07T11:00:42.140Z,19.54
2022-10-07T11:03:34.032Z,20.09
2022-10-07T11:06:07.883Z,19.77
2022-10-07T11:08:39.568Z,20.36
2022-10-07T11:11:12.968Z,20.09
2022-10-07T11:13:47.420Z,20.44
2022-10-07T11:16:20.415Z,20.21
2022-10-07T11:18:57.067Z,20.19
2022-10-07T11:21:32.773Z,20.61
2022-10-07T11:24:07.437Z,20.59
2022-10-07T11:26:40.774Z,20.66
2022-10-07T11:29:21.197Z,20.81
2022-10-07T11:31:57.374Z,21.25
2022-10-07T11:34:37.970Z,21.12
2022-10-07T11:37:16.063Z,20.99
2022-10-07T11:39:45.815Z,20.98
2022-10-07T11:42:20.845Z,21.32
2022-10-07T11:45:00.219Z,21.35
2022-10-07T11:47:36.219Z,21.37
2022-10-07T11:50:10.026Z,21.62
2022-10-07T11:52:46.266Z,21.46
2022-10-07T11:55:24.393Z,21.70
2022-10-07T11:57:57.276Z,21.67
2022-10-07T12:00:30.349Z,21.63
2022-10-07T12:03:11.885Z,21.44
2022-10-07T12:06:07.884Z,21.32
2022-10-07T12:08:38.449Z,21.40
2022-10-07T12:11:46.999Z,21.53
2022-10-07T12:14:43.009Z,21.68
2022-10-07T12:17:30.109Z,22.14
2022-10-07T12:20:45.126Z,22.04
2022-10-07T12:24:10.025Z,22.26
2022-10-07T12:26:52.260Z,21.83
2022-10-07T12:29:48.491Z,22.30
2022-10-07T12:32:48.044Z,22.22
2022-10-07T12:35:41.599Z,22.15
2022-10-07T12:38:18.096Z,22.65
2022-10-07T12:40:53.611Z,22.83
2022-10-07T12:43:43.283Z,22.66
2022-10-07T12:46:16.284Z,22.55
2022-10-07T12:48:52.059Z,22.62
2022-10-07T12:51:28.018Z,22.31
2022-10-07T12:53:59.651Z,22.26
2022-10-07T12:56:31.445Z,22.43
2022-10-07T12:59:48.848Z,22.57
2022-10-07T13:03:18.134Z,22.58
2022-10-07T13:06:43.666Z,22.44
2022-10-07T13:09:34.547Z,22.03
2022-10-07T13:12:30.799Z,22.27
2022-10-07T13:15:19.209Z,22.23
2022-10-07T13:17:52.384Z,22.20
2022-10-07T13:20:46.923Z,22.21
2022-10-07T13:23:24.579Z,22.09
2022-10-07T13:25:58.977Z,22.27
2022-10-07T13:28:37.112Z,22.34
2022-10-07T13:31:21.471Z,22.52
2022-10-07T13:33:50.475Z,22.43
2022-10-07T13:36:23.664Z,22.58
2022-10-07T13:38:54.930Z,22.36
2022-10-07T13:41:27.982Z,21.81
2022-10-07T13:44:01.084Z,22.17
2022-10-07T13:46:33.447Z,22.08
2022-10-07T13:49:03.777Z,21.87
2022-10-07T13:51:36.630Z,22.01
2022-10-07T13:54:07.896Z,21.90
2022-10-07T13:56:41.233Z,21.76
2022-10-07T13:59:18.071Z,22.02
2022-10-07T14:01:52.270Z,21.90
2022-10-07T14:04:26.750Z,21.90
2022-10-07T14:07:02.349Z,22.18
2022-10-07T14:09:45.284Z,22.01
2022-10-07T14:12:18.197Z,21.90
2022-10-07T14:14:49.648Z,21.70
2022-10-07T14:17:35.945Z,21.90
2022-10-07T14:20:07.994Z,21.71
2022-10-07T14:22:41.772Z,21.50
2022-10-07T14:25:21.500Z,21.79
2022-10-07T14:28:15.442Z,21.81
2022-10-07T14:31:03.320Z,21.28
2022-10-07T14:34:03.560Z,21.28
2022-10-07T14:36:31.935Z,21.17
2022-10-07T14:39:03.907Z,21.31
2022-10-07T14:41:33.356Z,21.27
2022-10-07T14:44:04.214Z,21.13
2022-10-07T14:46:32.561Z,21.38
2022-10-07T14:49:02.546Z,21.51
2022-10-07T14:51:31.203Z,21.98
2022-10-07T14:54:05.917Z,22.03
2022-10-07T14:56:36.976Z,22.04
2022-10-07T14:59:06.467Z,22.06
2022-10-07T15:01:35.153Z,21.76
2022-10-07T15:04:06.054Z,21.46
2022-10-07T15:06:35.935Z,21.20
2022-10-07T15:09:04.877Z,21.36
2022-10-07T15:11:33.225Z,21.08
2022-10-07T15:14:01.782Z,20.91
2022-10-07T15:16:30.472Z,20.64
2022-10-07T15:18:58.874Z,20.72
2022-10-07T15:21:29.384Z,20.39
2022-10-07T15:23:58.242Z,20.70
2022-10-07T15:26:26.984Z,20.72
2022-10-07T15:28:56.641Z,20.26
2022-10-07T15:31:27.907Z,20.16
2022-10-07T15:33:57.885Z,19.98
2022-10-07T15:36:31.824Z,20.11
2022-10-07T15:39:02.359Z,20.05
2022-10-07T15:41:35.351Z,20.08
2022-10-07T15:44:07.217Z,20.02
2022-10-07T15:46:36.096Z,19.81
2022-10-07T15:49:05.544Z,19.82
2022-10-07T15:51:36.498Z,19.95
2022-10-07T15:54:05.869Z,19.60
2022-10-07T15:56:34.372Z,19.58
2022-10-07T15:59:03.149Z,19.34
2022-10-07T16:01:33.045Z,19.56
2022-10-07T16:04:03.843Z,19.44
2022-10-07T16:06:36.905Z,19.52
2022-10-07T16:09:06.321Z,19.59
2022-10-07T16:11:35.815Z,19.39
2022-10-07T16:14:04.728Z,19.45
2022-10-07T16:16:33.904Z,19.31
2022-10-07T16:19:02.787Z,19.53
2022-10-07T16:21:34.569Z,19.46
2022-10-07T16:24:05.847Z,19.34
2022-10-07T16:26:35.984Z,19.32
2022-10-07T16:29:24.096Z,19.00
2022-10-07T16:31:58.192Z,19.04
2022-10-07T16:34:28.865Z,19.09
2022-10-07T16:36:59.417Z,18.82
2022-10-07T16:39:28.020Z,18.67
2022-10-07T16:41:56.969Z,18.64
2022-10-07T16:44:25.700Z,18.50
2022-10-07T16:46:57.115Z,18.54
2022-10-07T16:49:28.026Z,18.53
2022-10-07T16:51:58.036Z,18.37
2022-10-07T16:54:29.777Z,18.51
2022-10-07T16:56:58.596Z,18.36
2022-10-07T16:59:27.260Z,18.25
2022-10-07T17:02:00.157Z,18.30
2022-10-07T17:04:28.547Z,18.49
2022-10-07T17:06:58.279Z,18.45
2022-10-07T17:09:26.695Z,18.25
2022-10-07T17:11:56.789Z,18.10
2022-10-07T17:14:25.283Z,18.07
2022-10-07T17:16:57.105Z,17.94
2022-10-07T17:19:27.815Z,17.83
2022-10-07T17:21:59.710Z,17.72
2022-10-07T17:24:28.578Z,17.57
2022-10-07T17:26:56.935Z,17.33
2022-10-07T17:29:26.485Z,17.54
2022-10-07T17:31:55.575Z,17.39
2022-10-07T17:34:24.017Z,17.32
2022-10-07T17:36:52.576Z,17.33
2022-10-07T17:39:22.535Z,17.25
2022-10-07T17:41:50.853Z,17.05
2022-10-07T17:44:21.369Z,17.24
2022-10-07T17:46:50.246Z,17.03
2022-10-07T17:49:18.663Z,17.11
2022-10-07T17:51:46.955Z,16.99
2022-10-07T17:54:15.882Z,16.82
2022-10-07T17:56:48.007Z,16.63
2022-10-07T17:59:16.861Z,16.67
2022-10-07T18:01:45.567Z,16.46
2022-10-07T18:04:22.435Z,16.66
2022-10-07T18:06:53.367Z,16.62
2022-10-07T18:09:24.155Z,16.52
2022-10-07T18:12:11.165Z,16.52
2022-10-07T18:14:57.040Z,16.62
2022-10-07T18:17:25.373Z,16.63
2022-10-07T18:19:53.727Z,16.60
2022-10-07T18:22:22.246Z,16.52
2022-10-07T18:24:50.642Z,16.38
2022-10-07T18:27:27.072Z,16.33
2022-10-07T18:29:55.991Z,16.25
2022-10-07T18:32:25.517Z,16.12
2022-10-07T18:34:54.009Z,16.11
2022-10-07T18:37:23.584Z,16.40
2022-10-07T18:39:52.508Z,16.20
2022-10-07T18:42:22.462Z,16.05
2022-10-07T18:44:52.304Z,15.99
2022-10-07T18:47:20.739Z,16.07
2022-10-07T18:49:49.180Z,16.00
2022-10-07T18:52:18.080Z,16.24
2022-10-07T18:54:46.445Z,16.23
2022-10-07T18:57:14.723Z,15.06
2022-10-07T18:59:44.389Z,16.07
2022-10-07T19:02:13.041Z,16.09
2022-10-07T19:04:41.538Z,16.11
2022-10-07T19:07:09.929Z,15.69
2022-10-07T19:09:38.257Z,16.11
2022-10-07T19:12:27.377Z,15.89
2022-10-07T19:14:56.071Z,16.09
2022-10-07T19:17:24.434Z,16.12
2022-10-07T19:19:53.097Z,16.13
2022-10-07T19:22:21.432Z,16.13
2022-10-07T19:25:07.395Z,15.39
2022-10-07T19:27:35.788Z,15.74
2022-10-07T19:30:07.121Z,15.91
2022-10-07T19:32:35.497Z,15.86
2022-10-07T19:35:03.877Z,15.84
2022-10-07T19:37:32.182Z,15.83
2022-10-07T19:40:00.656Z,15.81
2022-10-07T19:42:29.724Z,15.95
2022-10-07T19:44:58.097Z,15.50
2022-10-07T19:47:27.957Z,15.80
2022-10-07T19:49:56.243Z,15.77
2022-10-07T19:52:26.364Z,15.71
2022-10-07T19:54:54.975Z,15.71
2022-10-07T19:57:23.356Z,15.46
2022-10-07T19:59:52.352Z,15.49
2022-10-07T20:02:20.703Z,15.59
2022-10-07T20:04:50.408Z,15.60
2022-10-07T20:07:19.083Z,15.66
2022-10-07T20:09:47.476Z,15.64
2022-10-07T20:12:16.393Z,15.58
2022-10-07T20:14:45.435Z,15.58
2022-10-07T20:17:13.758Z,15.48
2022-10-07T20:19:42.253Z,15.61
2022-10-07T20:22:12.675Z,15.54
2022-10-07T20:24:41.014Z,15.06
2022-10-07T20:27:09.442Z,15.19
2022-10-07T20:29:57.052Z,15.42
2022-10-07T20:32:25.989Z,15.32
2022-10-07T20:34:54.964Z,15.23
2022-10-07T20:37:24.661Z,15.37
2022-10-07T20:40:10.540Z,15.53
2022-10-07T20:42:42.201Z,15.56
2022-10-07T20:45:13.036Z,15.45
2022-10-07T20:47:41.334Z,15.12
2022-10-07T20:50:10.465Z,15.25
2022-10-07T20:52:40.343Z,15.30
2022-10-07T20:55:13.969Z,15.31
2022-10-07T20:57:42.339Z,15.00
2022-10-07T21:00:16.446Z,15.14
2022-10-07T21:02:45.682Z,14.77
2022-10-07T21:05:14.473Z,14.86
2022-10-07T21:07:44.302Z,15.03
2022-10-07T21:10:12.605Z,14.86
2022-10-07T21:12:41.171Z,15.20
2022-10-07T21:15:10.338Z,15.15
2022-10-07T21:17:38.776Z,15.13
2022-10-07T21:20:07.868Z,15.10
2022-10-07T21:22:36.919Z,14.93
2022-10-07T21:25:11.583Z,14.89
2022-10-07T21:27:39.911Z,14.31
2022-10-07T21:30:11.984Z,14.96
2022-10-07T21:32:40.259Z,15.16
2022-10-07T21:35:09.698Z,15.08
2022-10-07T21:37:38.006Z,14.91
2022-10-07T21:40:09.293Z,14.79
2022-10-07T21:42:37.742Z,15.10
2022-10-07T21:45:07.907Z,15.20
2022-10-07T21:47:36.167Z,15.11
2022-10-07T21:50:04.764Z,14.85
2022-10-07T21:52:33.069Z,15.36
2022-10-07T21:55:01.515Z,14.83
2022-10-07T21:57:31.176Z,14.89
2022-10-07T21:59:59.466Z,14.87
2022-10-07T22:02:29.280Z,15.41
2022-10-07T22:04:57.819Z,15.47
2022-10-07T22:07:43.798Z,15.29
2022-10-07T22:10:12.132Z,15.41
2022-10-07T22:12:42.035Z,15.13
2022-10-07T22:15:11.960Z,15.43
2022-10-07T22:17:40.308Z,15.35
2022-10-07T22:20:10.609Z,15.57
2022-10-07T22:22:38.949Z,15.68
2022-10-07T22:25:08.922Z,15.69
2022-10-07T22:27:37.206Z,15.61
2022-10-07T22:30:09.347Z,15.53
2022-10-07T22:32:37.685Z,15.79
2022-10-07T22:35:24.299Z,15.95
2022-10-07T22:37:52.676Z,15.95
2022-10-07T22:40:21.825Z,15.88
2022-10-07T22:42:50.099Z,15.81
2022-10-07T22:45:20.474Z,15.69
2022-10-07T22:47:50.953Z,15.83
2022-10-07T22:50:19.500Z,15.86
2022-10-07T22:52:48.963Z,15.70
2022-10-07T22:55:18.074Z,15.45
2022-10-07T22:57:46.374Z,15.76
2022-10-07T23:00:16.289Z,15.62
2022-10-07T23:02:46.465Z,15.68
2022-10-07T23:05:15.206Z,15.71
2022-10-07T23:07:43.500Z,15.62
2022-10-07T23:10:11.834Z,15.61
2022-10-07T23:12:40.221Z,15.53
2022-10-07T23:15:09.511Z,15.66
2022-10-07T23:17:37.942Z,15.78
2022-10-07T23:20:09.480Z,15.43
2022-10-07T23:22:40.047Z,15.97
2022-10-07T23:25:09.725Z,15.94
2022-10-07T23:27:40.064Z,15.77
2022-10-07T23:30:11.141Z,15.87
2022-10-07T23:32:39.533Z,15.88
2022-10-07T23:35:11.616Z,15.92
2022-10-07T23:37:40.129Z,15.97
2022-10-07T23:40:10.299Z,15.93
2022-10-07T23:42:38.590Z,16.18
2022-10-07T23:45:08.164Z,15.94
2022-10-07T23:47:36.374Z,16.09
2022-10-07T23:50:06.054Z,15.98
2022-10-07T23:52:35.639Z,16.09
2022-10-07T23:55:03.914Z,15.92
2022-10-07T23:57:32.262Z,16.07
